Time;durP1;ratioP1;P1;durP2;ratioP2;P2;SDS_P1;SDS_P2;PMS_P1;PMS_P2;Temp;Humidity;BMP_temperature;BMP_pressure;BME280_temperature;BME280_humidity;BME280_pressure;Samples;Min_cycle;Max_cycle;Signal;HPM_P1;HPM_P2
2023/04/28 00:02:07;;;;;;;4.82;2.70;;;6.90;93.20;;;;;;4987993;28;20549;-67
2023/04/28 00:04:33;;;;;;;11.27;2.85;;;6.90;93.00;;;;;;4988420;28;20034;-68
2023/04/28 00:06:59;;;;;;;8.02;3.58;;;6.80;93.30;;;;;;4989292;28;20038;-68
2023/04/28 00:09:24;;;;;;;5.47;3.10;;;6.80;93.10;;;;;;4986318;28;20076;-67
2023/04/28 00:11:50;;;;;;;5.32;2.42;;;6.70;93.20;;;;;;4990162;28;20030;-68
2023/04/28 00:14:16;;;;;;;3.83;2.35;;;6.80;93.80;;;;;;4969457;28;20026;-68
2023/04/28 00:16:42;;;;;;;5.30;2.10;;;6.70;94.10;;;;;;4984515;28;20018;-67
2023/04/28 00:19:07;;;;;;;4.07;1.90;;;6.70;94.00;;;;;;4988278;28;20574;-68
2023/04/28 00:21:33;;;;;;;5.70;1.73;;;6.70;94.00;;;;;;4986843;28;20490;-67
2023/04/28 00:23:59;;;;;;;3.22;1.80;;;6.70;92.80;;;;;;4988626;28;20059;-67
2023/04/28 00:26:25;;;;;;;4.45;1.95;;;6.70;92.60;;;;;;4983409;28;20041;-67
2023/04/28 00:28:50;;;;;;;3.65;1.85;;;6.80;92.10;;;;;;4991058;28;20036;-67
2023/04/28 00:31:16;;;;;;;1.73;1.45;;;6.80;91.90;;;;;;4970106;28;20037;-67
2023/04/28 00:33:43;;;;;;;2.70;1.50;;;6.80;91.60;;;;;;4988802;28;20034;-67
2023/04/28 00:36:10;;;;;;;2.65;1.10;;;6.90;91.70;;;;;;4969753;28;20037;-68
2023/04/28 00:38:36;;;;;;;3.13;1.60;;;6.90;91.60;;;;;;4989706;28;20087;-67
2023/04/28 00:41:02;;;;;;;2.13;1.50;;;6.90;91.60;;;;;;4969590;28;20049;-67
2023/04/28 00:43:28;;;;;;;3.25;1.67;;;6.90;91.50;;;;;;4984913;28;20033;-67
2023/04/28 00:45:54;;;;;;;3.17;1.90;;;6.90;91.50;;;;;;4970251;28;20528;-67
2023/04/28 00:48:22;;;;;;;5.60;2.45;;;6.90;91.70;;;;;;4971724;28;20421;-68
2023/04/28 00:50:48;;;;;;;5.18;2.42;;;6.90;92.00;;;;;;4971140;28;20737;-67
2023/04/28 00:53:14;;;;;;;3.80;2.20;;;6.90;92.20;;;;;;4972637;28;20030;-68
2023/04/28 00:55:40;;;;;;;7.25;2.25;;;6.80;92.70;;;;;;4989541;28;20057;-67
2023/04/28 00:58:07;;;;;;;3.30;1.80;;;6.80;93.00;;;;;;4969711;28;20072;-67
2023/04/28 01:00:33;;;;;;;2.95;1.98;;;6.80;93.00;;;;;;4970566;28;20077;-67
2023/04/28 01:02:59;;;;;;;2.75;1.77;;;6.70;93.20;;;;;;4969566;28;20034;-68
2023/04/28 01:05:29;;;;;;;2.78;1.67;;;6.70;93.30;;;;;;4972128;28;20076;-68
2023/04/28 01:07:55;;;;;;;3.65;1.83;;;6.70;93.20;;;;;;4970160;28;20080;-67
2023/04/28 01:10:21;;;;;;;2.53;1.88;;;6.70;92.90;;;;;;4969831;28;20030;-67
2023/04/28 01:12:48;;;;;;;3.38;1.88;;;6.60;92.60;;;;;;4970616;28;20128;-68
2023/04/28 01:15:16;;;;;;;5.07;2.72;;;6.60;92.70;;;;;;4986047;28;21027;-67
2023/04/28 01:17:45;;;;;;;3.30;2.28;;;6.70;92.50;;;;;;4971502;28;20029;-68
2023/04/28 01:20:13;;;;;;;2.92;2.00;;;6.60;92.10;;;;;;4969250;28;20821;-67
2023/04/28 01:22:39;;;;;;;5.32;2.30;;;6.60;91.80;;;;;;4987952;28;20475;-68
2023/04/28 01:25:05;;;;;;;3.17;2.17;;;6.60;91.80;;;;;;4989209;28;20030;-67
2023/04/28 01:27:31;;;;;;;5.38;2.42;;;6.70;91.60;;;;;;4971650;28;20033;-68
2023/04/28 01:29:57;;;;;;;3.25;2.50;;;6.60;91.50;;;;;;4975334;28;20034;-68
2023/04/28 01:32:23;;;;;;;5.82;2.55;;;6.60;91.60;;;;;;4971989;28;20034;-67
2023/04/28 01:34:49;;;;;;;4.00;2.75;;;6.60;91.70;;;;;;4967998;28;20405;-68
2023/04/28 01:37:14;;;;;;;3.80;2.78;;;6.60;91.70;;;;;;4983197;28;20058;-67
2023/04/28 01:39:40;;;;;;;5.90;2.60;;;6.60;91.80;;;;;;4964468;28;20032;-67
2023/04/28 01:42:06;;;;;;;4.25;2.42;;;6.60;91.70;;;;;;4969096;28;20033;-68
2023/04/28 01:44:32;;;;;;;8.15;3.35;;;6.60;91.80;;;;;;4965113;28;20118;-67
2023/04/28 01:46:58;;;;;;;7.30;3.03;;;6.60;91.90;;;;;;4981568;28;20832;-67
2023/04/28 01:49:24;;;;;;;6.00;2.55;;;6.50;92.10;;;;;;4969055;28;20030;-67
2023/04/28 01:51:49;;;;;;;6.32;2.95;;;6.50;92.30;;;;;;4971196;28;20117;-67
2023/04/28 01:54:15;;;;;;;4.93;2.97;;;6.50;92.30;;;;;;4985873;28;20030;-67
2023/04/28 01:56:41;;;;;;;3.97;2.35;;;6.50;92.30;;;;;;4971302;28;20114;-68
2023/04/28 01:59:07;;;;;;;7.75;2.42;;;6.50;92.40;;;;;;4968406;28;20398;-67
2023/04/28 02:01:33;;;;;;;4.05;2.40;;;6.50;92.10;;;;;;4965070;28;20203;-67
2023/04/28 02:03:59;;;;;;;6.63;2.65;;;6.50;92.10;;;;;;4970866;28;20030;-67
2023/04/28 02:06:26;;;;;;;5.28;2.63;;;6.50;92.10;;;;;;4986641;28;20520;-67
2023/04/28 02:08:52;;;;;;;5.05;2.60;;;6.60;91.90;;;;;;4987455;28;20057;-67
2023/04/28 02:11:18;;;;;;;4.47;2.70;;;6.50;91.90;;;;;;4971942;28;20030;-67
2023/04/28 02:13:43;;;;;;;4.93;2.42;;;6.60;91.70;;;;;;4972885;28;20737;-67
2023/04/28 02:16:10;;;;;;;4.22;2.10;;;6.60;91.10;;;;;;4975063;28;20033;-67
2023/04/28 02:18:35;;;;;;;5.93;2.47;;;6.70;91.10;;;;;;4987088;28;20026;-67
2023/04/28 02:21:11;;;;;;;4.47;2.45;;;6.70;90.90;;;;;;4986687;28;20038;-68
2023/04/28 02:23:37;;;;;;;5.35;2.72;;;6.70;90.90;;;;;;4970252;28;20549;-67
2023/04/28 02:26:05;;;;;;;5.25;2.80;;;6.80;91.00;;;;;;4972413;28;20038;-67
2023/04/28 02:28:31;;;;;;;5.05;2.85;;;6.90;91.10;;;;;;4989872;28;20038;-67
2023/04/28 02:31:07;;;;;;;4.60;2.55;;;6.90;91.10;;;;;;4973341;28;20692;-67
2023/04/28 02:33:34;;;;;;;5.68;2.58;;;6.90;90.40;;;;;;4987904;28;20026;-67
2023/04/28 02:36:00;;;;;;;4.45;2.38;;;6.90;90.30;;;;;;4972418;28;20057;-67
2023/04/28 02:38:26;;;;;;;3.70;2.42;;;6.90;90.30;;;;;;4970676;28;20023;-67
2023/04/28 02:41:03;;;;;;;7.43;2.35;;;6.90;90.00;;;;;;4989846;28;20038;-67
2023/04/28 02:43:30;;;;;;;6.50;2.75;;;6.90;89.90;;;;;;4970084;28;20515;-67
2023/04/28 02:45:56;;;;;;;6.68;3.10;;;6.90;89.50;;;;;;4985476;28;20062;-67
2023/04/28 02:48:23;;;;;;;6.10;3.47;;;6.90;89.70;;;;;;4985249;28;20030;-67
2023/04/28 02:50:50;;;;;;;5.13;3.10;;;6.90;89.10;;;;;;4965297;28;20581;-68
2023/04/28 02:53:15;;;;;;;4.68;3.42;;;6.90;89.30;;;;;;4965226;28;20026;-68
2023/04/28 02:55:41;;;;;;;5.28;3.25;;;6.90;89.30;;;;;;4967746;28;20375;-67
2023/04/28 02:58:07;;;;;;;7.28;3.92;;;6.90;89.10;;;;;;4971352;28;20035;-67
2023/04/28 03:00:33;;;;;;;8.05;3.97;;;6.90;88.60;;;;;;4974030;28;20117;-68
2023/04/28 03:02:59;;;;;;;7.75;5.45;;;7.00;89.20;;;;;;4971189;28;20065;-67
2023/04/28 03:05:25;;;;;;;7.70;5.20;;;6.90;89.40;;;;;;4986730;28;20030;-67
2023/04/28 03:07:51;;;;;;;8.85;5.43;;;7.00;88.30;;;;;;4963308;28;20026;-67
2023/04/28 03:10:17;;;;;;;7.70;4.60;;;7.00;88.20;;;;;;4969659;28;20026;-67
2023/04/28 03:12:43;;;;;;;7.85;5.10;;;7.10;88.80;;;;;;4964262;28;20045;-67
2023/04/28 03:15:09;;;;;;;10.27;5.47;;;7.10;89.40;;;;;;4964664;28;20034;-67
2023/04/28 03:17:40;;;;;;;7.53;4.97;;;7.10;89.70;;;;;;4966540;28;20143;-67
2023/04/28 03:20:08;;;;;;;8.57;5.95;;;7.10;89.80;;;;;;4966159;28;20132;-67
2023/04/28 03:22:34;;;;;;;10.23;6.28;;;7.00;89.80;;;;;;4984635;28;20029;-67
2023/04/28 03:25:00;;;;;;;8.23;6.00;;;7.00;90.20;;;;;;4965678;28;20038;-67
2023/04/28 03:27:28;;;;;;;8.23;5.43;;;7.00;90.20;;;;;;4973150;28;20042;-67
2023/04/28 03:29:56;;;;;;;10.75;6.80;;;7.00;90.30;;;;;;4968370;28;20034;-67
2023/04/28 03:32:21;;;;;;;9.75;6.80;;;7.00;90.30;;;;;;4977687;28;20068;-67
2023/04/28 03:34:47;;;;;;;11.30;7.18;;;7.00;90.30;;;;;;4972195;28;20026;-67
2023/04/28 03:37:13;;;;;;;11.43;8.45;;;7.00;90.20;;;;;;4972596;28;20387;-67
2023/04/28 03:39:39;;;;;;;11.90;8.43;;;6.90;90.30;;;;;;4990678;28;20026;-67
2023/04/28 03:42:06;;;;;;;12.45;8.55;;;6.90;90.20;;;;;;4970925;28;20095;-67
2023/04/28 03:44:51;;;;;;;11.10;9.20;;;6.90;89.60;;;;;;4979562;28;20046;-67
2023/04/28 03:47:17;;;;;;;10.35;7.65;;;6.90;88.80;;;;;;4972070;28;20085;-67
2023/04/28 03:49:44;;;;;;;16.40;8.20;;;6.90;88.80;;;;;;4962866;28;20509;-67
2023/04/28 03:52:09;;;;;;;12.70;7.95;;;6.90;88.60;;;;;;4979734;28;20038;-67
2023/04/28 03:54:35;;;;;;;15.05;7.97;;;6.90;88.10;;;;;;4980879;28;20026;-67
2023/04/28 03:57:03;;;;;;;9.98;6.47;;;6.90;87.70;;;;;;4958019;28;20034;-67
2023/04/28 03:59:32;;;;;;;11.90;6.65;;;7.00;88.00;;;;;;4973012;28;20505;-68
2023/04/28 04:01:58;;;;;;;9.88;5.10;;;7.00;88.00;;;;;;4969618;28;20045;-67
2023/04/28 04:04:24;;;;;;;9.00;5.82;;;7.00;87.00;;;;;;4977131;28;20569;-67
2023/04/28 04:06:51;;;;;;;8.52;5.00;;;7.00;87.30;;;;;;4968908;28;20029;-67
2023/04/28 04:09:17;;;;;;;6.50;4.68;;;7.00;87.70;;;;;;4967712;28;20034;-67
2023/04/28 04:11:42;;;;;;;7.82;4.38;;;7.00;87.60;;;;;;4960932;28;20053;-67
2023/04/28 04:14:08;;;;;;;8.20;4.28;;;6.90;88.30;;;;;;4969919;28;20083;-67
2023/04/28 04:16:35;;;;;;;5.65;4.25;;;7.00;88.20;;;;;;4974011;28;20029;-67
2023/04/28 04:19:02;;;;;;;6.40;3.65;;;7.00;87.90;;;;;;4966223;28;20030;-67
2023/04/28 04:21:34;;;;;;;7.97;4.25;;;7.10;87.90;;;;;;4971807;28;20045;-67
2023/04/28 04:24:00;;;;;;;7.65;3.88;;;7.10;88.20;;;;;;4966689;28;20034;-67
2023/04/28 04:26:27;;;;;;;5.35;3.72;;;7.10;87.60;;;;;;4967104;28;20124;-67
2023/04/28 04:28:53;;;;;;;9.02;3.80;;;7.10;87.30;;;;;;4970025;28;20042;-68
2023/04/28 04:31:19;;;;;;;6.53;3.17;;;7.10;87.70;;;;;;4971191;28;20032;-67
2023/04/28 04:33:45;;;;;;;9.05;3.42;;;7.10;87.30;;;;;;4967153;28;20094;-67
2023/04/28 04:36:11;;;;;;;8.15;3.20;;;7.20;87.60;;;;;;4962283;28;20034;-67
2023/04/28 04:38:38;;;;;;;6.05;3.03;;;7.20;87.50;;;;;;4987802;28;20038;-67
2023/04/28 04:41:14;;;;;;;5.40;3.15;;;7.30;88.00;;;;;;4964664;28;20037;-67
2023/04/28 04:43:41;;;;;;;9.20;3.45;;;7.20;87.80;;;;;;4969187;28;20033;-67
2023/04/28 04:46:07;;;;;;;8.05;3.30;;;7.20;88.00;;;;;;4981861;28;20038;-67
2023/04/28 04:48:33;;;;;;;5.85;3.60;;;7.30;87.70;;;;;;4966375;28;20092;-67
2023/04/28 04:50:59;;;;;;;5.85;3.03;;;7.30;87.80;;;;;;4984867;28;20133;-67
2023/04/28 04:53:25;;;;;;;6.93;3.28;;;7.30;87.10;;;;;;4968919;28;20034;-67
2023/04/28 04:55:52;;;;;;;8.10;3.20;;;7.40;87.10;;;;;;4970667;28;20131;-68
2023/04/28 04:58:19;;;;;;;6.00;3.35;;;7.40;87.40;;;;;;4958571;28;20026;-66
2023/04/28 05:01:04;;;;;;;7.85;3.33;;;7.40;87.30;;;;;;4962548;28;20046;-67
2023/04/28 05:03:30;;;;;;;7.50;3.47;;;7.50;87.80;;;;;;4983563;28;20030;-68
2023/04/28 05:05:56;;;;;;;5.47;3.40;;;7.50;87.50;;;;;;4979718;28;20030;-68
2023/04/28 05:08:42;;;;;;;5.50;3.42;;;7.60;87.10;;;;;;4984768;28;20034;-68
2023/04/28 05:11:08;;;;;;;8.63;3.47;;;7.70;86.90;;;;;;4971593;28;20096;-68
2023/04/28 05:13:33;;;;;;;3.58;2.67;;;7.80;86.50;;;;;;4968544;28;20031;-68
2023/04/28 05:16:01;;;;;;;6.65;3.38;;;7.90;85.90;;;;;;4969716;28;20072;-68
2023/04/28 05:18:47;;;;;;;7.03;3.72;;;8.00;86.10;;;;;;4988270;28;20030;-68
2023/04/28 05:21:14;;;;;;;4.97;2.95;;;8.10;86.30;;;;;;4963374;28;20068;-69
2023/04/28 05:23:40;;;;;;;5.70;3.10;;;8.20;85.30;;;;;;4971394;28;20034;-68
2023/04/28 05:26:06;;;;;;;6.57;3.03;;;8.30;85.00;;;;;;4966650;28;20571;-69
2023/04/28 05:28:32;;;;;;;9.25;3.13;;;8.50;84.30;;;;;;4962270;28;20414;-67
2023/04/28 05:31:00;;;;;;;7.57;3.22;;;8.70;83.70;;;;;;4970950;28;20108;-67
2023/04/28 05:33:26;;;;;;;9.75;3.83;;;8.80;82.60;;;;;;4963041;28;20117;-67
2023/04/28 05:35:52;;;;;;;7.07;2.95;;;9.10;82.20;;;;;;4966962;28;20061;-68
2023/04/28 05:38:18;;;;;;;8.50;3.35;;;9.20;80.30;;;;;;4979608;28;20035;-68
2023/04/28 05:40:44;;;;;;;6.00;2.70;;;9.30;79.60;;;;;;4969905;28;20030;-68
2023/04/28 05:43:11;;;;;;;5.95;3.03;;;9.40;79.80;;;;;;4963400;28;20034;-68
2023/04/28 05:45:37;;;;;;;7.07;3.50;;;9.40;79.50;;;;;;4966065;28;20033;-68
2023/04/28 05:48:04;;;;;;;5.32;3.00;;;9.70;79.10;;;;;;4980924;28;20031;-68
2023/04/28 05:50:31;;;;;;;4.65;3.17;;;9.90;77.80;;;;;;4966495;28;20034;-68
2023/04/28 05:52:57;;;;;;;4.43;2.63;;;10.50;76.40;;;;;;4977464;28;20040;-68
2023/04/28 05:55:23;;;;;;;11.60;3.40;;;11.00;75.10;;;;;;4970874;28;20108;-68
2023/04/28 05:57:49;;;;;;;5.45;2.60;;;11.60;73.20;;;;;;4972115;28;20144;-69
2023/04/28 06:00:17;;;;;;;4.22;2.65;;;12.10;71.80;;;;;;4970346;28;20034;-68
2023/04/28 06:02:42;;;;;;;4.80;2.75;;;12.80;69.70;;;;;;4969166;28;20041;-68
2023/04/28 06:05:09;;;;;;;3.83;2.55;;;13.40;67.00;;;;;;4970102;28;20030;-67
2023/04/28 06:07:35;;;;;;;4.97;3.08;;;13.90;65.30;;;;;;4968747;28;20042;-68
2023/04/28 06:10:00;;;;;;;6.80;2.88;;;14.10;61.60;;;;;;4971452;28;20030;-67
2023/04/28 06:12:26;;;;;;;9.57;2.80;;;14.20;60.60;;;;;;4969762;28;20121;-69
2023/04/28 06:14:54;;;;;;;7.47;2.67;;;14.20;60.30;;;;;;4968852;28;20029;-69
2023/04/28 06:17:20;;;;;;;5.18;2.95;;;14.30;59.60;;;;;;4987825;28;20076;-68
2023/04/28 06:19:47;;;;;;;6.25;2.72;;;14.40;59.30;;;;;;4969607;28;20030;-68
2023/04/28 06:22:14;;;;;;;5.20;2.95;;;14.60;58.90;;;;;;4930310;28;1142746;-68
2023/04/28 06:24:40;;;;;;;6.40;2.63;;;14.90;58.20;;;;;;4987764;28;20037;-67
2023/04/28 06:27:09;;;;;;;8.93;2.88;;;15.00;56.40;;;;;;4971256;28;20038;-66
2023/04/28 06:29:35;;;;;;;3.28;2.25;;;15.00;57.00;;;;;;4976219;28;20044;-67
2023/04/28 06:32:01;;;;;;;5.60;3.13;;;15.10;56.00;;;;;;4970204;28;20126;-67
2023/04/28 06:34:27;;;;;;;4.82;2.85;;;15.00;56.10;;;;;;4973780;28;20026;-66
2023/04/28 06:36:54;;;;;;;7.22;2.80;;;14.90;56.50;;;;;;4969955;28;20153;-67
2023/04/28 06:39:21;;;;;;;5.13;2.90;;;14.70;56.10;;;;;;4975076;28;20030;-67
2023/04/28 06:41:46;;;;;;;10.13;2.92;;;14.70;56.80;;;;;;4989047;28;20030;-67
2023/04/28 06:44:12;;;;;;;8.93;3.40;;;14.70;56.80;;;;;;4974000;28;20322;-68
2023/04/28 06:46:38;;;;;;;21.63;4.30;;;14.70;56.80;;;;;;4972293;28;20041;-67
2023/04/28 06:49:04;;;;;;;9.93;3.08;;;14.80;56.00;;;;;;4971205;28;20038;-66
2023/04/28 06:51:33;;;;;;;27.92;5.90;;;15.10;56.20;;;;;;4969501;28;20026;-67
2023/04/28 06:54:00;;;;;;;13.68;4.18;;;15.40;56.70;;;;;;4968875;28;20029;-67
2023/04/28 06:56:26;;;;;;;17.90;4.57;;;15.50;54.90;;;;;;4967841;28;20287;-65
2023/04/28 06:58:56;;;;;;;5.93;2.63;;;15.60;54.80;;;;;;4987703;28;20100;-64
2023/04/28 07:01:22;;;;;;;26.70;3.45;;;15.80;54.50;;;;;;4984425;28;20057;-66
2023/04/28 07:03:47;;;;;;;6.00;2.50;;;16.10;53.90;;;;;;4989673;28;20474;-65
2023/04/28 07:06:13;;;;;;;16.98;4.25;;;16.30;53.10;;;;;;4983316;28;20832;-65
2023/04/28 07:08:40;;;;;;;5.72;2.72;;;16.30;52.80;;;;;;4989523;28;20117;-66
2023/04/28 07:11:06;;;;;;;8.52;3.28;;;16.20;52.40;;;;;;4969210;28;20038;-66
2023/04/28 07:13:32;;;;;;;6.15;2.80;;;16.00;53.20;;;;;;4985838;28;20104;-66
2023/04/28 07:15:58;;;;;;;8.10;3.17;;;16.00;52.90;;;;;;4986319;28;20042;-65
2023/04/28 07:18:24;;;;;;;6.78;2.97;;;15.80;53.20;;;;;;4988141;28;20030;-66
2023/04/28 07:20:50;;;;;;;10.35;3.60;;;15.60;53.40;;;;;;4974575;28;20032;-65
2023/04/28 07:23:16;;;;;;;10.45;3.13;;;15.60;53.70;;;;;;4990686;28;20030;-67
2023/04/28 07:25:42;;;;;;;7.10;2.63;;;15.30;53.80;;;;;;4990576;28;20160;-67
2023/04/28 07:28:08;;;;;;;6.57;2.72;;;15.20;54.20;;;;;;4988764;28;20041;-67
2023/04/28 07:30:34;;;;;;;7.00;2.80;;;15.30;54.10;;;;;;4981960;28;20138;-68
2023/04/28 07:33:01;;;;;;;10.02;2.83;;;15.50;54.20;;;;;;4981954;28;20033;-68
2023/04/28 07:35:27;;;;;;;10.00;3.40;;;15.50;53.00;;;;;;4982922;28;20029;-68
2023/04/28 07:37:53;;;;;;;6.10;2.78;;;15.60;53.00;;;;;;4988887;28;20034;-68
2023/04/28 07:40:20;;;;;;;6.03;3.45;;;15.90;53.80;;;;;;4985287;28;20095;-68
2023/04/28 07:42:46;;;;;;;7.15;2.83;;;16.10;52.70;;;;;;4986965;28;20033;-68
2023/04/28 07:45:14;;;;;;;7.03;3.17;;;16.30;52.60;;;;;;4983201;28;20033;-69
2023/04/28 07:47:41;;;;;;;9.23;3.15;;;16.10;52.80;;;;;;4987441;28;20029;-68
2023/04/28 07:50:07;;;;;;;5.47;3.10;;;16.20;52.80;;;;;;4984519;28;20042;-68
2023/04/28 07:52:33;;;;;;;6.30;2.88;;;16.40;52.50;;;;;;4988213;28;20030;-68
2023/04/28 07:55:01;;;;;;;8.20;2.88;;;16.40;52.30;;;;;;4984071;28;20446;-68
2023/04/28 07:57:28;;;;;;;5.80;2.90;;;16.40;52.10;;;;;;4991468;28;20053;-68
2023/04/28 07:59:54;;;;;;;9.50;3.13;;;16.20;52.80;;;;;;4986953;28;20117;-68
2023/04/28 08:02:20;;;;;;;7.13;3.00;;;16.10;51.20;;;;;;4987145;28;20509;-68
2023/04/28 08:04:46;;;;;;;6.13;3.08;;;16.00;52.20;;;;;;4990980;28;20037;-68
2023/04/28 08:07:12;;;;;;;6.82;2.67;;;16.10;52.70;;;;;;4987746;28;20041;-68
2023/04/28 08:09:41;;;;;;;5.43;2.75;;;16.10;51.80;;;;;;4988184;28;20781;-69
2023/04/28 08:12:07;;;;;;;9.63;2.78;;;16.30;53.10;;;;;;4983559;28;20026;-68
2023/04/28 08:14:33;;;;;;;7.25;2.72;;;16.30;51.30;;;;;;4983631;28;20045;-68
2023/04/28 08:16:58;;;;;;;8.80;3.30;;;16.30;52.60;;;;;;4983566;28;20088;-68
2023/04/28 08:19:24;;;;;;;9.57;3.22;;;16.20;52.10;;;;;;4987015;28;20049;-68
2023/04/28 08:21:50;;;;;;;7.00;2.80;;;16.20;52.30;;;;;;4987386;28;20137;-68
2023/04/28 08:24:16;;;;;;;8.23;3.22;;;16.30;52.40;;;;;;4984906;28;20157;-68
2023/04/28 08:26:41;;;;;;;7.95;3.13;;;16.40;51.40;;;;;;4979255;28;20092;-68
2023/04/28 08:29:07;;;;;;;5.35;2.47;;;16.60;52.30;;;;;;4984660;28;20501;-68
2023/04/28 08:31:33;;;;;;;8.27;2.90;;;16.70;51.30;;;;;;4985936;28;20089;-66
2023/04/28 08:33:59;;;;;;;9.27;3.20;;;16.70;49.90;;;;;;4986111;28;20073;-68
2023/04/28 08:36:30;;;;;;;9.10;2.83;;;16.70;49.90;;;;;;4988765;28;20160;-68
2023/04/28 08:38:58;;;;;;;5.97;2.75;;;16.30;50.00;;;;;;4987048;28;20042;-68
2023/04/28 08:41:26;;;;;;;8.48;2.67;;;16.20;50.10;;;;;;4990574;28;20062;-68
2023/04/28 08:43:53;;;;;;;6.45;3.00;;;16.20;50.60;;;;;;4988862;28;20117;-68
2023/04/28 08:46:20;;;;;;;7.18;3.05;;;16.40;50.10;;;;;;4979106;28;20058;-68
2023/04/28 08:48:48;;;;;;;6.22;2.80;;;16.60;49.80;;;;;;4984630;28;20029;-68
2023/04/28 08:51:15;;;;;;;7.65;2.88;;;16.90;49.10;;;;;;4985462;28;20549;-68
2023/04/28 08:53:48;;;;;;;7.13;3.53;;;17.00;50.50;;;;;;4985741;28;20057;-68
2023/04/28 08:56:17;;;;;;;5.28;2.67;;;17.10;50.10;;;;;;4984195;28;20911;-68
2023/04/28 08:58:42;;;;;;;5.18;2.90;;;17.40;50.10;;;;;;4984122;28;21080;-68
2023/04/28 09:01:08;;;;;;;5.03;2.97;;;17.40;48.10;;;;;;4987891;28;20109;-68
2023/04/28 09:03:34;;;;;;;6.47;3.35;;;17.40;48.20;;;;;;4983331;28;20207;-68
2023/04/28 09:06:01;;;;;;;5.70;3.15;;;17.40;47.60;;;;;;4987867;28;20386;-68
2023/04/28 09:08:27;;;;;;;7.57;2.92;;;17.40;47.30;;;;;;4984619;28;20041;-68
2023/04/28 09:11:07;;;;;;;10.68;3.35;;;17.60;47.20;;;;;;4986405;28;20871;-68
2023/04/28 09:13:33;;;;;;;7.35;4.07;;;17.80;47.50;;;;;;4984539;28;20038;-68
2023/04/28 09:16:01;;;;;;;6.03;3.72;;;17.80;47.00;;;;;;4987666;28;20034;-68
2023/04/28 09:18:28;;;;;;;4.90;3.50;;;17.80;47.40;;;;;;4988066;28;20038;-68
2023/04/28 09:21:03;;;;;;;6.60;3.42;;;17.70;47.10;;;;;;4969964;28;20704;-68
2023/04/28 09:23:29;;;;;;;7.18;3.28;;;17.70;47.60;;;;;;4982519;28;20044;-68
2023/04/28 09:25:55;;;;;;;8.20;3.35;;;17.90;47.10;;;;;;4987387;28;20034;-68
2023/04/28 09:28:22;;;;;;;8.57;3.60;;;18.00;45.00;;;;;;4983677;28;20038;-68
2023/04/28 09:30:47;;;;;;;6.70;3.15;;;18.20;45.50;;;;;;4972570;28;20393;-68
2023/04/28 09:33:14;;;;;;;4.57;2.95;;;18.60;46.00;;;;;;4989545;28;20042;-68
2023/04/28 09:35:44;;;;;;;6.95;3.65;;;18.70;46.90;;;;;;4993295;28;20128;-68
2023/04/28 09:38:09;;;;;;;8.45;3.20;;;18.80;45.60;;;;;;4989392;28;20114;-67
2023/04/28 09:40:51;;;;;;;7.43;3.35;;;18.50;46.10;;;;;;4989010;28;20464;-67
2023/04/28 09:43:43;;;;;;;7.35;3.33;;;18.30;47.40;;;;;;4971992;28;20117;-67
2023/04/28 09:46:09;;;;;;;7.28;3.47;;;18.70;46.80;;;;;;4985448;28;20457;-67
2023/04/28 09:48:37;;;;;;;9.15;3.80;;;18.70;45.80;;;;;;4992072;28;20022;-68
2023/04/28 09:51:05;;;;;;;5.25;3.15;;;18.70;45.60;;;;;;4986375;28;20061;-67
2023/04/28 09:53:31;;;;;;;7.55;3.15;;;18.80;45.70;;;;;;4983801;28;20034;-67
2023/04/28 09:56:00;;;;;;;5.50;3.28;;;18.80;46.10;;;;;;4981546;28;20044;-67
2023/04/28 09:58:27;;;;;;;8.13;3.63;;;18.70;45.80;;;;;;4985529;28;20062;-67
2023/04/28 10:00:58;;;;;;;6.05;3.03;;;18.60;46.30;;;;;;4989592;28;20128;-67
2023/04/28 10:03:26;;;;;;;6.05;3.05;;;18.40;47.40;;;;;;4988510;28;20040;-66
2023/04/28 10:05:52;;;;;;;10.82;3.28;;;18.40;46.40;;;;;;4987173;28;20772;-69
2023/04/28 10:08:23;;;;;;;5.82;3.28;;;18.60;47.10;;;;;;4987179;28;20029;-68
2023/04/28 10:10:51;;;;;;;8.27;3.35;;;18.40;46.20;;;;;;4988925;28;20147;-68
2023/04/28 10:13:18;;;;;;;7.85;3.33;;;18.40;46.70;;;;;;4991611;28;20783;-68
2023/04/28 10:15:45;;;;;;;9.30;2.88;;;18.30;45.80;;;;;;4993080;28;20036;-68
2023/04/28 10:18:13;;;;;;;6.75;3.17;;;18.20;46.30;;;;;;4987089;28;20035;-68
2023/04/28 10:20:42;;;;;;;8.05;3.65;;;18.30;46.90;;;;;;4990053;28;20493;-68
2023/04/28 10:23:46;;;;;;;9.48;3.42;;;18.30;47.10;;;;;;4989623;28;20038;-69
2023/04/28 10:26:14;;;;;;;8.48;3.00;;;18.50;48.30;;;;;;4985846;28;20082;-68
2023/04/28 10:28:46;;;;;;;7.22;2.97;;;18.70;47.20;;;;;;4986258;28;20045;-68
2023/04/28 10:31:17;;;;;;;8.35;3.10;;;18.90;46.80;;;;;;4988598;28;20045;-68
2023/04/28 10:33:43;;;;;;;6.43;3.10;;;18.90;45.30;;;;;;4987783;28;20030;-68
2023/04/28 10:36:10;;;;;;;5.97;3.17;;;18.60;45.40;;;;;;4987481;28;20038;-68
2023/04/28 10:39:08;;;;;;;8.73;3.03;;;18.60;45.30;;;;;;4989982;28;20522;-68
2023/04/28 10:41:34;;;;;;;8.68;3.50;;;18.80;45.70;;;;;;4988282;28;20493;-69
2023/04/28 10:44:00;;;;;;;9.85;3.45;;;18.90;45.90;;;;;;4986695;28;20042;-68
2023/04/28 10:46:26;;;;;;;6.45;3.20;;;19.00;45.40;;;;;;4988640;28;20026;-68
2023/04/28 10:48:53;;;;;;;4.47;3.00;;;19.00;46.10;;;;;;4989307;28;20041;-67
2023/04/28 10:51:18;;;;;;;5.25;2.80;;;19.10;46.80;;;;;;4987193;28;20602;-68
2023/04/28 10:53:44;;;;;;;6.20;3.03;;;19.00;45.30;;;;;;4988945;28;20034;-66
2023/04/28 10:56:12;;;;;;;7.80;2.72;;;18.80;45.00;;;;;;4987984;28;20038;-63
2023/04/28 10:58:41;;;;;;;6.95;3.38;;;18.60;45.50;;;;;;4985865;28;20104;-66
2023/04/28 11:01:25;;;;;;;6.82;3.08;;;18.50;46.20;;;;;;4986653;28;20053;-66
2023/04/28 11:04:11;;;;;;;6.50;3.50;;;18.30;46.30;;;;;;4988237;28;20026;-66
2023/04/28 11:06:38;;;;;;;8.73;3.15;;;18.20;46.40;;;;;;4988351;28;20046;-66
2023/04/28 11:09:13;;;;;;;11.57;3.70;;;18.30;47.20;;;;;;4986113;28;20418;-66
2023/04/28 11:12:00;;;;;;;7.95;2.97;;;18.30;46.50;;;;;;4992825;28;20042;-66
2023/04/28 11:14:34;;;;;;;;;;;18.10;46.40;;;;;;4981622;28;20819;-66
2023/04/28 11:17:01;;;;;;;14.70;4.95;;;18.10;46.50;;;;;;4988376;28;19919;-66
2023/04/28 11:19:30;;;;;;;5.68;3.05;;;18.10;47.70;;;;;;4983657;28;20027;-64
2023/04/28 11:21:57;;;;;;;11.60;3.88;;;18.20;48.10;;;;;;4986330;28;20072;-64
2023/04/28 11:24:30;;;;;;;11.98;3.72;;;18.10;48.60;;;;;;4988400;28;20929;-65
2023/04/28 11:26:57;;;;;;;7.22;3.22;;;18.30;47.40;;;;;;4987413;28;20049;-65
2023/04/28 11:29:41;;;;;;;7.20;3.38;;;18.50;48.70;;;;;;4989307;28;20030;-65
2023/04/28 11:32:08;;;;;;;9.82;3.72;;;18.80;46.60;;;;;;4952664;28;20129;-65
2023/04/28 11:34:35;;;;;;;8.48;3.38;;;19.00;46.00;;;;;;4984237;28;20052;-65
2023/04/28 11:37:02;;;;;;;6.38;3.03;;;19.20;45.30;;;;;;4987467;28;20776;-67
2023/04/28 11:39:30;;;;;;;9.40;3.70;;;19.20;44.90;;;;;;4990112;28;20078;-65
2023/04/28 11:42:01;;;;;;;8.13;3.83;;;19.00;46.20;;;;;;4987283;28;20077;-65
2023/04/28 11:44:29;;;;;;;6.43;2.90;;;18.80;46.50;;;;;;4990337;28;20119;-65
2023/04/28 11:47:01;;;;;;;7.70;3.25;;;18.80;47.60;;;;;;4971252;28;20041;-65
2023/04/28 11:49:27;;;;;;;7.95;3.40;;;18.70;47.40;;;;;;4987807;28;20120;-65
2023/04/28 11:51:54;;;;;;;11.13;3.55;;;18.70;46.60;;;;;;4985889;28;20629;-65
2023/04/28 11:54:27;;;;;;;7.35;3.33;;;18.60;47.30;;;;;;4983144;28;20093;-66
2023/04/28 11:56:55;;;;;;;7.35;3.30;;;18.50;47.80;;;;;;4988788;28;20076;-65
2023/04/28 11:59:26;;;;;;;8.13;3.78;;;18.40;47.30;;;;;;4982268;28;20117;-65
2023/04/28 12:02:11;;;;;;;8.65;3.70;;;18.40;48.60;;;;;;4988387;28;20151;-65
2023/04/28 12:04:41;;;;;;;5.28;3.60;;;18.10;48.10;;;;;;4986470;28;20037;-65
2023/04/28 12:07:10;;;;;;;7.85;3.80;;;18.20;48.40;;;;;;4957748;28;20038;-65
2023/04/28 12:09:43;;;;;;;7.65;4.10;;;18.30;48.40;;;;;;4990396;28;20050;-65
2023/04/28 12:12:10;;;;;;;7.72;3.47;;;18.30;47.20;;;;;;4985628;28;20046;-65
2023/04/28 12:15:05;;;;;;;6.80;4.07;;;18.40;48.00;;;;;;4989228;28;20748;-66
2023/04/28 12:17:37;;;;;;;9.30;3.85;;;18.70;48.90;;;;;;4986358;28;20019;-66
2023/04/28 12:20:11;;;;;;;13.88;4.18;;;18.80;49.30;;;;;;4985656;28;20116;-65
2023/04/28 12:22:48;;;;;;;11.15;4.13;;;18.80;48.60;;;;;;4988421;28;20034;-64
2023/04/28 12:25:20;;;;;;;11.73;4.20;;;18.90;48.30;;;;;;4988357;28;20038;-65
2023/04/28 12:28:03;;;;;;;7.65;4.10;;;19.00;47.60;;;;;;4987524;28;20026;-65
2023/04/28 12:30:32;;;;;;;8.55;4.30;;;19.00;47.40;;;;;;4990761;28;20061;-65
2023/04/28 12:32:58;;;;;;;11.50;4.22;;;19.00;46.80;;;;;;4984701;28;20125;-65
2023/04/28 12:35:25;;;;;;;7.65;3.35;;;18.90;48.20;;;;;;4986732;28;20061;-65
2023/04/28 12:37:52;;;;;;;7.60;3.58;;;18.90;48.70;;;;;;4978333;28;20038;-65
2023/04/28 12:40:18;;;;;;;7.88;3.97;;;18.80;48.30;;;;;;4986864;28;20048;-65
2023/04/28 12:42:44;;;;;;;11.13;4.05;;;18.70;49.40;;;;;;4990098;28;20104;-65
2023/04/28 12:45:10;;;;;;;9.40;3.95;;;18.60;48.30;;;;;;4978511;28;20520;-65
2023/04/28 12:47:37;;;;;;;5.88;3.80;;;18.70;48.70;;;;;;4982875;28;20022;-65
2023/04/28 12:50:04;;;;;;;9.43;3.65;;;18.50;50.10;;;;;;4985049;28;20111;-65
2023/04/28 12:52:32;;;;;;;9.60;4.20;;;18.40;50.10;;;;;;4981103;28;20475;-65
2023/04/28 12:54:59;;;;;;;8.45;3.50;;;18.30;50.00;;;;;;4988013;28;20600;-65